F/V Argentario — FGPE — position and weather

sailwx.info

Track history (hours):
 
Tides and Currents Weather Stations Pressure Air Temp Water Temp Dewpoint Dewpoint Depression Visibility Wind Speed Wind Dir Waves Ship Positions

F/V Argentario

Last reported at 2014-Aug-21 13:33 UTC. Time now 2014-Aug-23 13:29 UTC.
Position N 46°38' W 002°08'.

Length 22 m; draft 3.4 m.

Type: Fishing. MMSI: 228975000.

Date/timePositionNaut miles runAvg speedWind from/ knotsBaromVisibWave heightAir tempDewpointWater temp
2014-Aug-21 13:33N 46°38' W 002°08'9 8.8
2014-Aug-21 12:33N 46°32' W 001°58'8 7.8
2014-Aug-21 11:33N 46°29' W 001°48'1 0.6
2014-Aug-21 10:33N 46°30' W 001°47'0 0.0
2014-Aug-21 09:33N 46°30' W 001°47'5 5.0
2014-Aug-21 08:33N 46°27' W 001°53'8 8.4
2014-Aug-21 07:33N 46°24' W 002°04'  
2014-Aug-14 21:30N 46°36' W 002°09'7 7.9
2014-Aug-14 20:33N 46°40' W 001°60'3 2.7
2014-Aug-14 19:33N 46°42' W 001°57'9 8.8
2014-Aug-14 18:33N 46°43' W 002°09'  
2014-Aug-12 05:33N 46°40' W 002°10'7 7.3
2014-Aug-12 04:33N 46°35' W 002°02'6 5.9
2014-Aug-12 03:33N 46°31' W 001°55'6 5.6
2014-Aug-12 02:34N 46°29' W 001°48'1 0.6
2014-Aug-12 01:33N 46°30' W 001°47'2 2.1
2014-Aug-12 00:33N 46°28' W 001°48'8 7.6
2014-Aug-11 23:33N 46°26' W 001°58'7 7.4
2014-Aug-11 22:34N 46°23' W 002°09'  
Track history (hours):
 
Tides and Currents Weather Stations Pressure Air Temp Water Temp Dewpoint Dewpoint Depression Visibility Wind Speed Wind Dir Waves Ship Positions

F/V Argentario

Last reported at 2014-Aug-21 13:33 UTC. Time now 2014-Aug-23 13:29 UTC.
Position N 46°38' W 002°08'.

Length 22 m; draft 3.4 m.

Type: Fishing. MMSI: 228975000.

Date/timePositionNaut miles runAvg speedWind from/ knotsBaromVisibWave heightAir tempDewpointWater temp
2014-Aug-21 13:33N 46°38' W 002°08'9 8.8
2014-Aug-21 12:33N 46°32' W 001°58'8 7.8
2014-Aug-21 11:33N 46°29' W 001°48'1 0.6
2014-Aug-21 10:33N 46°30' W 001°47'0 0.0
2014-Aug-21 09:33N 46°30' W 001°47'5 5.0
2014-Aug-21 08:33N 46°27' W 001°53'8 8.4
2014-Aug-21 07:33N 46°24' W 002°04'  
2014-Aug-14 21:30N 46°36' W 002°09'7 7.9
2014-Aug-14 20:33N 46°40' W 001°60'3 2.7
2014-Aug-14 19:33N 46°42' W 001°57'9 8.8
2014-Aug-14 18:33N 46°43' W 002°09'  
2014-Aug-12 05:33N 46°40' W 002°10'7 7.3
2014-Aug-12 04:33N 46°35' W 002°02'6 5.9
2014-Aug-12 03:33N 46°31' W 001°55'6 5.6
2014-Aug-12 02:34N 46°29' W 001°48'1 0.6
2014-Aug-12 01:33N 46°30' W 001°47'2 2.1
2014-Aug-12 00:33N 46°28' W 001°48'8 7.6
2014-Aug-11 23:33N 46°26' W 001°58'7 7.4
2014-Aug-11 22:34N 46°23' W 002°09'  

Dump ship's entire track history